createdAt,value
2019-05-13T00:01:14.442Z,51.90
2019-05-13T00:03:44.049Z,51.90
2019-05-13T00:06:13.381Z,52.00
2019-05-13T00:08:43.862Z,52.10
2019-05-13T00:11:13.615Z,52.10
2019-05-13T00:13:44.151Z,52.20
2019-05-13T00:16:13.958Z,52.20
2019-05-13T00:18:41.727Z,52.10
2019-05-13T00:21:10.054Z,52.10
2019-05-13T00:23:38.303Z,52.10
2019-05-13T00:26:06.571Z,52.10
2019-05-13T00:28:34.826Z,52.00
2019-05-13T00:31:03.520Z,52.00
2019-05-13T00:33:33.883Z,52.00
2019-05-13T00:36:03.917Z,51.90
2019-05-13T00:38:33.547Z,51.90
2019-05-13T00:41:03.659Z,52.00
2019-05-13T00:43:33.870Z,52.00
2019-05-13T00:46:03.906Z,52.10
2019-05-13T00:48:33.486Z,52.00
2019-05-13T00:51:03.823Z,52.00
2019-05-13T00:53:32.527Z,52.00
2019-05-13T00:56:00.794Z,52.00
2019-05-13T00:58:29.037Z,52.00
2019-05-13T01:00:57.309Z,52.00
2019-05-13T01:03:28.353Z,52.00
2019-05-13T01:05:55.541Z,52.00
2019-05-13T01:08:24.339Z,51.90
2019-05-13T01:10:53.664Z,51.90
2019-05-13T01:13:23.775Z,52.00
2019-05-13T01:15:54.198Z,52.60
2019-05-13T01:18:23.403Z,52.00
2019-05-13T01:20:53.653Z,52.00
2019-05-13T01:23:23.843Z,52.00
2019-05-13T01:25:51.738Z,52.00
2019-05-13T01:28:20.004Z,52.00
2019-05-13T01:30:48.256Z,52.00
2019-05-13T01:33:16.522Z,52.00
2019-05-13T01:35:44.804Z,52.00
2019-05-13T01:38:13.522Z,52.00
2019-05-13T01:40:43.933Z,52.00
2019-05-13T01:43:14.427Z,52.00
2019-05-13T01:45:44.162Z,51.90
2019-05-13T01:48:14.120Z,52.00
2019-05-13T01:50:44.422Z,52.00
2019-05-13T01:53:14.448Z,52.00
2019-05-13T01:55:44.241Z,52.00
2019-05-13T01:58:14.520Z,52.00
2019-05-13T02:00:44.231Z,52.00
2019-05-13T02:03:14.544Z,51.90
2019-05-13T02:05:44.365Z,52.00
2019-05-13T02:08:14.323Z,52.00
2019-05-13T02:10:50.458Z,52.10
2019-05-13T02:13:18.725Z,52.10
2019-05-13T02:15:46.973Z,52.10
2019-05-13T02:18:15.242Z,52.10
2019-05-13T02:20:44.248Z,52.00
2019-05-13T02:23:14.479Z,52.10
2019-05-13T02:25:43.566Z,52.10
2019-05-13T02:28:13.873Z,52.10
2019-05-13T02:30:45.294Z,52.00
2019-05-13T02:33:13.405Z,52.10
2019-05-13T02:35:43.459Z,52.10
2019-05-13T02:38:23.602Z,52.10
2019-05-13T02:40:43.410Z,52.20
2019-05-13T02:43:13.587Z,52.20
2019-05-13T02:45:42.845Z,52.20
2019-05-13T02:48:12.601Z,52.10
2019-05-13T02:50:44.040Z,52.10
2019-05-13T02:53:13.732Z,52.10
2019-05-13T02:55:43.653Z,52.00
2019-05-13T02:58:12.391Z,52.10
2019-05-13T03:00:44.123Z,52.00
2019-05-13T03:03:12.875Z,52.10
2019-05-13T03:05:42.882Z,52.00
2019-05-13T03:08:12.754Z,52.10
2019-05-13T03:10:43.387Z,52.10
2019-05-13T03:13:12.713Z,52.10
2019-05-13T03:15:42.972Z,52.10
2019-05-13T03:18:13.245Z,52.10
2019-05-13T03:20:43.124Z,52.10
2019-05-13T03:23:13.505Z,52.10
2019-05-13T03:25:42.871Z,52.10
2019-05-13T03:28:13.427Z,52.10
2019-05-13T03:30:45.699Z,52.00
2019-05-13T03:33:18.109Z,52.10
2019-05-13T03:35:45.759Z,52.10
2019-05-13T03:38:12.773Z,52.00
2019-05-13T03:40:42.708Z,52.00
2019-05-13T03:43:12.855Z,52.00
2019-05-13T03:45:43.269Z,52.00
2019-05-13T03:48:12.199Z,52.70
2019-05-13T03:50:43.391Z,52.00
2019-05-13T03:53:13.029Z,52.00
2019-05-13T03:55:43.365Z,52.00
2019-05-13T03:58:13.173Z,52.00
2019-05-13T04:00:42.622Z,52.00
2019-05-13T04:03:13.516Z,51.80
2019-05-13T04:05:43.681Z,52.00
2019-05-13T04:08:13.231Z,52.00
2019-05-13T04:10:42.322Z,52.00
2019-05-13T04:13:12.415Z,52.10
2019-05-13T04:15:42.850Z,52.00
2019-05-13T04:18:12.516Z,52.00
2019-05-13T04:20:42.432Z,52.00
2019-05-13T04:23:12.883Z,52.50
2019-05-13T04:25:44.746Z,52.70
2019-05-13T04:28:13.301Z,52.10
2019-05-13T04:30:43.573Z,52.00
2019-05-13T04:33:13.836Z,52.00
2019-05-13T04:35:42.570Z,51.90
2019-05-13T04:38:13.017Z,52.00
2019-05-13T04:40:42.382Z,52.00
2019-05-13T04:43:13.167Z,52.00
2019-05-13T04:45:43.012Z,52.10
2019-05-13T04:48:12.807Z,52.10
2019-05-13T04:50:43.148Z,52.00
2019-05-13T04:53:13.663Z,52.10
2019-05-13T04:55:42.735Z,52.10
2019-05-13T04:58:13.055Z,52.20
2019-05-13T05:01:08.502Z,52.10
2019-05-13T05:03:53.255Z,52.10
2019-05-13T05:06:32.847Z,52.20
2019-05-13T05:09:12.306Z,52.10
2019-05-13T05:11:54.083Z,52.20
2019-05-13T05:14:32.507Z,52.30
2019-05-13T05:17:06.884Z,52.30
2019-05-13T05:19:47.338Z,52.60
2019-05-13T05:22:41.872Z,52.20
2019-05-13T05:25:17.693Z,52.30
2019-05-13T05:27:58.150Z,52.90
2019-05-13T05:30:51.819Z,52.30
2019-05-13T05:33:26.221Z,52.30
2019-05-13T05:36:03.578Z,52.30
2019-05-13T05:38:35.270Z,52.30
2019-05-13T05:41:03.532Z,52.30
2019-05-13T05:43:31.794Z,52.30
2019-05-13T05:46:01.747Z,52.40
2019-05-13T05:48:31.486Z,52.00
2019-05-13T05:51:02.127Z,50.60
2019-05-13T05:53:31.940Z,50.20
2019-05-13T05:56:02.312Z,49.40
2019-05-13T05:58:31.505Z,48.60
2019-05-13T06:01:02.567Z,48.70
2019-05-13T06:03:32.746Z,48.40
2019-05-13T06:06:01.677Z,47.40
2019-05-13T06:08:32.328Z,47.90
2019-05-13T06:11:01.306Z,47.90
2019-05-13T06:13:31.597Z,47.60
2019-05-13T06:16:01.836Z,47.40
2019-05-13T06:18:31.998Z,47.60
2019-05-13T06:21:01.747Z,47.10
2019-05-13T06:23:31.233Z,47.10
2019-05-13T06:26:01.866Z,47.60
2019-05-13T06:28:32.243Z,46.70
2019-05-13T06:31:02.578Z,47.00
2019-05-13T06:33:31.650Z,45.80
2019-05-13T06:36:01.253Z,45.30
2019-05-13T06:38:31.585Z,46.40
2019-05-13T06:41:04.386Z,46.40
2019-05-13T06:43:31.488Z,45.90
2019-05-13T06:46:01.873Z,45.80
2019-05-13T06:48:32.175Z,45.70
2019-05-13T06:51:02.614Z,45.60
2019-05-13T06:53:32.200Z,45.50
2019-05-13T06:56:01.615Z,43.80
2019-05-13T06:58:32.521Z,44.20
2019-05-13T07:01:03.138Z,44.90
2019-05-13T07:03:32.293Z,45.00
2019-05-13T07:06:01.814Z,45.00
2019-05-13T07:08:31.458Z,45.40
2019-05-13T07:11:16.645Z,44.90
2019-05-13T07:13:32.197Z,45.10
2019-05-13T07:16:01.396Z,45.40
2019-05-13T07:18:32.149Z,45.30
2019-05-13T07:21:02.231Z,45.60
2019-05-13T07:23:31.894Z,45.50
2019-05-13T07:26:01.699Z,45.70
2019-05-13T07:28:32.271Z,46.00
2019-05-13T07:31:01.946Z,46.00
2019-05-13T07:33:32.010Z,46.10
2019-05-13T07:36:02.856Z,46.30
2019-05-13T07:38:32.393Z,46.30
2019-05-13T07:41:05.322Z,46.50
2019-05-13T07:43:33.582Z,47.10
2019-05-13T07:46:02.276Z,46.90
2019-05-13T07:48:31.872Z,46.70
2019-05-13T07:51:04.313Z,46.90
2019-05-13T07:53:32.237Z,47.00
2019-05-13T07:56:02.107Z,47.20
2019-05-13T07:58:34.376Z,47.20
2019-05-13T08:01:02.441Z,47.40
2019-05-13T08:03:31.680Z,47.50
2019-05-13T08:06:01.952Z,47.50
2019-05-13T08:08:32.378Z,47.80
2019-05-13T08:11:01.205Z,47.90
2019-05-13T08:13:31.471Z,47.80
2019-05-13T08:16:01.940Z,47.90
2019-05-13T08:18:31.927Z,47.90
2019-05-13T08:21:01.998Z,47.90
2019-05-13T08:23:32.152Z,48.10
2019-05-13T08:26:01.970Z,47.90
2019-05-13T08:28:32.193Z,47.70
2019-05-13T08:31:01.836Z,47.70
2019-05-13T08:33:31.895Z,47.20
2019-05-13T08:36:01.635Z,46.70
2019-05-13T08:38:31.937Z,46.50
2019-05-13T08:41:01.688Z,46.50
2019-05-13T08:43:31.607Z,46.80
2019-05-13T08:46:01.717Z,47.10
2019-05-13T08:48:32.093Z,47.30
2019-05-13T08:50:59.527Z,47.40
2019-05-13T08:53:27.858Z,47.60
2019-05-13T08:55:56.786Z,47.50
2019-05-13T08:58:25.062Z,47.60
2019-05-13T09:00:58.964Z,47.60
2019-05-13T09:03:26.194Z,47.70
2019-05-13T09:05:54.555Z,47.70
2019-05-13T09:08:23.437Z,47.90
2019-05-13T09:10:53.178Z,47.90
2019-05-13T09:13:22.455Z,48.10
2019-05-13T09:15:51.633Z,48.10
2019-05-13T09:18:22.766Z,48.10
2019-05-13T09:20:52.036Z,48.20
2019-05-13T09:23:22.281Z,48.20
2019-05-13T09:25:52.094Z,48.20
2019-05-13T09:28:21.795Z,48.30
2019-05-13T09:30:52.752Z,48.30
2019-05-13T09:33:21.936Z,48.10
2019-05-13T09:35:53.391Z,48.20
2019-05-13T09:38:22.171Z,48.20
2019-05-13T09:40:53.011Z,48.20
2019-05-13T09:43:22.135Z,48.30
2019-05-13T09:45:52.362Z,48.40
2019-05-13T09:48:22.441Z,48.40
2019-05-13T09:50:51.691Z,48.40
2019-05-13T09:53:22.256Z,48.50
2019-05-13T09:55:52.149Z,48.50
2019-05-13T09:58:22.277Z,48.30
2019-05-13T10:00:52.624Z,48.30
2019-05-13T10:03:25.298Z,48.50
2019-05-13T10:05:51.847Z,48.50
2019-05-13T10:08:21.940Z,48.60
2019-05-13T10:10:52.760Z,48.60
2019-05-13T10:13:23.102Z,48.70
2019-05-13T10:15:51.172Z,48.60
2019-05-13T10:18:21.631Z,48.70
2019-05-13T10:20:58.233Z,48.70
2019-05-13T10:23:24.897Z,48.70
2019-05-13T10:25:54.909Z,48.60
2019-05-13T10:28:23.173Z,48.70
2019-05-13T10:30:53.108Z,48.60
2019-05-13T10:33:22.158Z,48.70
2019-05-13T10:35:52.389Z,48.70
2019-05-13T10:38:22.778Z,48.60
2019-05-13T10:40:52.187Z,48.40
2019-05-13T10:43:30.984Z,47.90
2019-05-13T10:45:52.362Z,48.10
2019-05-13T10:48:22.030Z,48.20
2019-05-13T10:50:52.955Z,48.40
2019-05-13T10:53:22.033Z,48.40
2019-05-13T10:55:52.182Z,48.50
2019-05-13T10:58:23.449Z,48.40
2019-05-13T11:00:52.964Z,48.40
2019-05-13T11:03:22.917Z,48.40
2019-05-13T11:05:52.541Z,48.30
2019-05-13T11:08:22.223Z,48.20
2019-05-13T11:10:53.107Z,47.90
2019-05-13T11:13:23.164Z,48.00
2019-05-13T11:15:57.451Z,47.80
2019-05-13T11:18:23.607Z,47.70
2019-05-13T11:20:51.179Z,47.40
2019-05-13T11:23:19.442Z,47.20
2019-05-13T11:25:47.698Z,47.10
2019-05-13T11:28:15.968Z,46.90
2019-05-13T11:30:44.491Z,47.00
2019-05-13T11:33:13.042Z,46.70
2019-05-13T11:35:41.609Z,46.70
2019-05-13T11:38:12.168Z,46.60
2019-05-13T11:40:40.640Z,46.80
2019-05-13T11:43:08.975Z,46.90
2019-05-13T11:45:37.226Z,46.90
2019-05-13T11:48:05.499Z,47.00
2019-05-13T11:50:34.125Z,46.90
2019-05-13T11:53:03.491Z,46.90
2019-05-13T11:55:33.043Z,48.00
2019-05-13T11:58:02.878Z,47.70
2019-05-13T12:00:52.754Z,48.60
2019-05-13T12:03:22.676Z,50.20
2019-05-13T12:05:53.405Z,50.50
2019-05-13T12:08:22.470Z,49.10
2019-05-13T12:10:51.861Z,48.70
2019-05-13T12:13:19.454Z,48.70
2019-05-13T12:15:49.907Z,48.60
2019-05-13T12:18:17.718Z,48.60
2019-05-13T12:20:46.550Z,48.60
2019-05-13T12:23:14.811Z,50.00
2019-05-13T12:25:43.950Z,50.00
2019-05-13T12:28:12.345Z,50.10
2019-05-13T12:30:41.798Z,49.50
2019-05-13T12:33:13.499Z,49.20
2019-05-13T12:35:40.416Z,49.10
2019-05-13T12:38:08.742Z,49.10
2019-05-13T12:40:37.007Z,49.20
2019-05-13T12:43:05.285Z,48.80
2019-05-13T12:45:33.545Z,48.70
2019-05-13T12:48:03.319Z,48.70
2019-05-13T12:50:32.964Z,48.40
2019-05-13T12:53:02.725Z,48.30
2019-05-13T12:55:33.097Z,48.40
2019-05-13T12:58:02.744Z,48.40
2019-05-13T13:00:33.049Z,48.50
2019-05-13T13:03:02.179Z,48.40
2019-05-13T13:05:36.224Z,48.50
2019-05-13T13:08:18.301Z,48.60
2019-05-13T13:10:34.571Z,48.60
2019-05-13T13:13:02.183Z,49.40
2019-05-13T13:15:40.825Z,48.40
2019-05-13T13:18:02.536Z,48.30
2019-05-13T13:20:33.522Z,48.20
2019-05-13T13:23:04.288Z,47.70
2019-05-13T13:25:33.732Z,47.20
2019-05-13T13:28:10.569Z,46.80
2019-05-13T13:30:35.050Z,46.40
2019-05-13T13:33:02.870Z,45.90
2019-05-13T13:35:33.845Z,45.60
2019-05-13T13:38:04.081Z,45.50
2019-05-13T13:40:35.082Z,45.70
2019-05-13T13:43:05.332Z,46.00
2019-05-13T13:45:33.607Z,45.80
2019-05-13T13:48:03.926Z,45.40
2019-05-13T13:50:33.550Z,45.00
2019-05-13T13:53:01.388Z,44.80
2019-05-13T13:55:32.085Z,44.30
2019-05-13T13:58:01.684Z,43.70
2019-05-13T14:00:40.572Z,43.70
2019-05-13T14:03:06.051Z,43.50
2019-05-13T14:05:29.622Z,43.20
2019-05-13T14:07:57.875Z,42.90
2019-05-13T14:10:26.137Z,42.90
2019-05-13T14:12:54.962Z,42.80
2019-05-13T14:15:23.229Z,42.50
2019-05-13T14:17:51.823Z,42.40
2019-05-13T14:20:21.972Z,42.10
2019-05-13T14:22:56.802Z,42.20
2019-05-13T14:25:22.389Z,43.20
2019-05-13T14:27:52.504Z,42.90
2019-05-13T14:30:21.735Z,43.70
2019-05-13T14:32:51.973Z,43.50
2019-05-13T14:35:22.014Z,43.80
2019-05-13T14:37:51.925Z,44.10
2019-05-13T14:40:22.368Z,44.20
2019-05-13T14:42:52.586Z,44.40
2019-05-13T14:45:23.689Z,44.60
2019-05-13T14:47:50.885Z,44.80
2019-05-13T14:50:21.335Z,45.60
2019-05-13T14:52:49.123Z,45.10
2019-05-13T14:55:17.378Z,45.30
2019-05-13T14:57:45.645Z,45.30
2019-05-13T15:00:14.186Z,45.40
2019-05-13T15:02:42.454Z,45.50
2019-05-13T15:05:11.910Z,45.60
2019-05-13T15:07:42.112Z,45.70
2019-05-13T15:10:10.610Z,45.80
2019-05-13T15:12:41.353Z,45.90
2019-05-13T15:15:08.851Z,46.00
2019-05-13T15:17:37.113Z,46.10
2019-05-13T15:20:07.024Z,46.20
2019-05-13T15:22:35.330Z,46.30
2019-05-13T15:25:04.518Z,46.30
2019-05-13T15:27:32.779Z,46.40
2019-05-13T15:30:14.571Z,46.80
2019-05-13T15:32:32.568Z,48.90
2019-05-13T15:35:02.243Z,47.20
2019-05-13T15:37:32.136Z,47.40
2019-05-13T15:40:02.294Z,47.50
2019-05-13T15:42:31.906Z,47.30
2019-05-13T15:45:01.879Z,47.20
2019-05-13T15:47:30.638Z,48.30
2019-05-13T15:50:02.183Z,49.30
2019-05-13T15:52:31.502Z,51.10
2019-05-13T15:55:01.273Z,50.80
2019-05-13T15:57:28.986Z,51.00
2019-05-13T15:59:58.127Z,51.40
2019-05-13T16:02:26.958Z,52.50
2019-05-13T16:05:01.264Z,50.70
2019-05-13T16:07:25.210Z,50.60
2019-05-13T16:09:53.468Z,51.20
2019-05-13T16:12:21.735Z,58.20
2019-05-13T16:14:50.415Z,62.40
2019-05-13T16:17:18.661Z,61.40
2019-05-13T16:19:46.929Z,59.90
2019-05-13T16:22:15.182Z,58.40
2019-05-13T16:24:43.445Z,69.60
2019-05-13T16:27:12.005Z,65.60
2019-05-13T16:29:42.227Z,58.90
2019-05-13T16:32:12.004Z,56.80
2019-05-13T16:34:42.292Z,55.50
2019-05-13T16:37:11.696Z,54.60
2019-05-13T16:39:41.447Z,54.30
2019-05-13T16:42:11.603Z,54.10
2019-05-13T16:44:40.058Z,53.80
2019-05-13T16:47:08.882Z,53.50
2019-05-13T16:49:37.152Z,53.30
2019-05-13T16:52:05.405Z,53.20
2019-05-13T16:54:33.672Z,53.10
2019-05-13T16:57:01.942Z,53.00
2019-05-13T16:59:31.615Z,55.20
2019-05-13T17:02:01.872Z,55.10
2019-05-13T17:04:31.911Z,55.40
2019-05-13T17:07:01.507Z,54.90
2019-05-13T17:09:32.111Z,56.30
2019-05-13T17:12:01.382Z,53.50
2019-05-13T17:14:32.055Z,53.80
2019-05-13T17:17:01.236Z,53.20
2019-05-13T17:19:31.571Z,53.50
2019-05-13T17:22:02.317Z,52.80
2019-05-13T17:24:31.814Z,52.70
2019-05-13T17:27:01.872Z,53.30
2019-05-13T17:29:31.755Z,52.70
2019-05-13T17:32:02.165Z,52.90
2019-05-13T17:34:31.915Z,53.10
2019-05-13T17:37:02.354Z,53.10
2019-05-13T17:39:32.129Z,53.00
2019-05-13T17:42:01.427Z,53.20
2019-05-13T17:44:31.819Z,53.00
2019-05-13T17:47:01.761Z,53.20
2019-05-13T17:49:31.848Z,53.10
2019-05-13T17:52:02.142Z,53.20
2019-05-13T17:54:31.857Z,53.00
2019-05-13T17:57:01.839Z,53.10
2019-05-13T17:59:31.507Z,53.20
2019-05-13T18:02:02.333Z,53.20
2019-05-13T18:04:31.495Z,53.40
2019-05-13T18:07:01.684Z,53.30
2019-05-13T18:09:31.867Z,53.40
2019-05-13T18:12:02.150Z,53.30
2019-05-13T18:14:29.999Z,53.40
2019-05-13T18:16:58.297Z,53.40
2019-05-13T18:19:26.645Z,53.50
2019-05-13T18:21:54.910Z,53.30
2019-05-13T18:24:23.165Z,53.30
2019-05-13T18:26:52.100Z,53.40
2019-05-13T18:29:22.670Z,53.30
2019-05-13T18:31:52.440Z,53.30
2019-05-13T18:34:21.507Z,53.20
2019-05-13T18:36:51.622Z,53.30
2019-05-13T18:39:21.580Z,53.20
2019-05-13T18:41:50.142Z,52.80
2019-05-13T18:44:18.402Z,52.80
2019-05-13T18:46:46.692Z,52.70
2019-05-13T18:49:14.949Z,52.80
2019-05-13T18:51:43.202Z,52.80
2019-05-13T18:54:11.902Z,52.90
2019-05-13T18:56:41.547Z,53.00
2019-05-13T18:59:12.300Z,52.90
2019-05-13T19:01:40.157Z,52.70
2019-05-13T19:04:11.276Z,52.90
2019-05-13T19:06:39.101Z,52.60
2019-05-13T19:09:07.733Z,52.60
2019-05-13T19:11:36.054Z,52.60
2019-05-13T19:14:04.317Z,52.60
2019-05-13T19:16:32.574Z,52.70
2019-05-13T19:19:11.932Z,52.70
2019-05-13T19:21:31.155Z,52.60
2019-05-13T19:24:01.967Z,52.60
2019-05-13T19:26:30.226Z,52.90
2019-05-13T19:28:58.486Z,52.60
2019-05-13T19:31:26.802Z,52.50
2019-05-13T19:33:55.090Z,52.60
2019-05-13T19:36:23.350Z,52.50
2019-05-13T19:38:51.609Z,52.60
2019-05-13T19:41:22.113Z,52.60
2019-05-13T19:43:51.055Z,52.60
2019-05-13T19:46:19.591Z,53.10
2019-05-13T19:48:47.850Z,52.70
2019-05-13T19:51:16.115Z,52.80
2019-05-13T19:53:44.986Z,54.20
2019-05-13T19:56:13.506Z,54.30
2019-05-13T19:58:41.758Z,54.40
2019-05-13T20:01:11.674Z,53.80
2019-05-13T20:03:42.273Z,54.00
2019-05-13T20:06:12.171Z,54.20
2019-05-13T20:08:41.284Z,53.90
2019-05-13T20:11:11.562Z,54.00
2019-05-13T20:13:41.614Z,53.90
2019-05-13T20:16:11.762Z,53.80
2019-05-13T20:18:41.438Z,53.80
2019-05-13T20:21:11.179Z,53.80
2019-05-13T20:23:41.460Z,53.70
2019-05-13T20:26:09.806Z,53.70
2019-05-13T20:28:38.062Z,53.60
2019-05-13T20:31:06.327Z,53.60
2019-05-13T20:33:39.649Z,53.60
2019-05-13T20:36:04.592Z,53.50
2019-05-13T20:38:32.889Z,53.60
2019-05-13T20:41:01.454Z,53.60
2019-05-13T20:43:32.493Z,53.50
2019-05-13T20:46:02.043Z,53.50
2019-05-13T20:48:32.048Z,53.60
2019-05-13T20:51:02.480Z,53.50
2019-05-13T20:53:31.111Z,53.50
2019-05-13T20:56:01.620Z,53.50
2019-05-13T20:58:31.604Z,53.50
2019-05-13T21:01:02.058Z,53.40
2019-05-13T21:03:31.415Z,53.30
2019-05-13T21:05:59.505Z,53.20
2019-05-13T21:08:28.069Z,53.20
2019-05-13T21:10:57.049Z,53.30
2019-05-13T21:13:25.322Z,53.10
2019-05-13T21:15:54.114Z,53.20
2019-05-13T21:18:22.642Z,53.30
2019-05-13T21:20:50.893Z,53.30
2019-05-13T21:23:19.154Z,53.30
2019-05-13T21:25:47.406Z,53.30
2019-05-13T21:28:16.244Z,53.30
2019-05-13T21:30:44.493Z,53.30
2019-05-13T21:33:12.759Z,53.30
2019-05-13T21:35:42.036Z,53.20
2019-05-13T21:38:11.308Z,53.20
2019-05-13T21:40:41.576Z,53.20
2019-05-13T21:43:09.735Z,53.10
2019-05-13T21:45:37.986Z,53.10
2019-05-13T21:48:06.266Z,53.10
2019-05-13T21:50:37.376Z,53.20
2019-05-13T21:53:04.590Z,53.10
2019-05-13T21:55:33.353Z,53.10
2019-05-13T21:58:03.266Z,53.10
2019-05-13T22:00:33.987Z,53.00
2019-05-13T22:03:02.238Z,53.10
2019-05-13T22:05:31.418Z,53.00
2019-05-13T22:08:01.697Z,53.00
2019-05-13T22:10:31.067Z,53.00
2019-05-13T22:13:01.430Z,53.00
2019-05-13T22:15:29.445Z,52.90
2019-05-13T22:17:57.699Z,52.90
2019-05-13T22:20:25.958Z,53.00
2019-05-13T22:22:54.214Z,52.90
2019-05-13T22:25:23.143Z,52.90
2019-05-13T22:27:51.849Z,53.00
2019-05-13T22:30:20.347Z,53.00
2019-05-13T22:32:48.603Z,53.60
2019-05-13T22:35:16.876Z,53.00
2019-05-13T22:37:45.127Z,53.00
2019-05-13T22:40:13.394Z,53.00
2019-05-13T22:42:42.314Z,53.00
2019-05-13T22:45:11.716Z,52.90
2019-05-13T22:47:41.734Z,53.00
2019-05-13T22:50:11.462Z,52.90
2019-05-13T22:52:41.843Z,52.80
2019-05-13T22:55:11.514Z,52.90
2019-05-13T22:57:41.934Z,52.90
2019-05-13T23:00:11.908Z,53.00
2019-05-13T23:02:42.057Z,53.00
2019-05-13T23:05:11.298Z,53.00
2019-05-13T23:07:39.812Z,53.00
2019-05-13T23:10:08.452Z,53.00
2019-05-13T23:12:36.702Z,53.10
2019-05-13T23:15:07.926Z,53.00
2019-05-13T23:17:36.181Z,53.00
2019-05-13T23:20:05.681Z,53.00
2019-05-13T23:22:33.931Z,52.90
2019-05-13T23:25:02.189Z,52.90
2019-05-13T23:27:32.085Z,52.90
2019-05-13T23:30:01.144Z,52.90
2019-05-13T23:32:32.060Z,53.00
2019-05-13T23:35:01.940Z,53.00
2019-05-13T23:37:31.106Z,53.00
2019-05-13T23:40:01.270Z,53.00
2019-05-13T23:42:31.827Z,53.20
2019-05-13T23:44:59.405Z,53.10
2019-05-13T23:47:28.318Z,53.10
2019-05-13T23:49:56.570Z,53.70
2019-05-13T23:52:24.840Z,53.10
2019-05-13T23:54:53.090Z,53.00
2019-05-13T23:57:22.186Z,52.90
2019-05-13T23:59:51.271Z,52.90
